Terminal Aerodrome Forecast
Issued by NWS

Current Version | Previous Version | Graphics & Text | Print | Product List | Glossary On
Versions: 1 2 3 4 5 6 7 8 9 10 11 12 13 14 15 16 17 18 19 20
587
FTUS41 KILN 211733
TAFLUK
TAF
KLUK 211733Z 2118/2218 21010KT P6SM VCTS BKN020CB OVC035
      TEMPO 2118/2120 3SM -TSRA BR OVC018CB
     FM212000 25010KT P6SM VCSH BKN022
     FM212200 25009KT P6SM SCT035
     FM220100 29006KT P6SM SCT035
     FM221600 29007KT P6SM FEW040 SCT250=

USA.gov is the U.S. government's official web portal to all federal, state and local government web resources and services.